createdAt,value
2023-01-26T00:01:15.689Z,96.63
2023-01-26T00:03:43.018Z,108.03
2023-01-26T00:06:11.637Z,106.93
2023-01-26T00:08:38.915Z,104.18
2023-01-26T00:11:07.265Z,103.47
2023-01-26T00:13:34.767Z,99.50
2023-01-26T00:16:02.401Z,106.03
2023-01-26T00:18:29.215Z,106.50
2023-01-26T00:20:57.739Z,108.30
2023-01-26T00:23:24.900Z,103.18
2023-01-26T00:25:51.308Z,112.30
2023-01-26T00:28:17.619Z,107.20
2023-01-26T00:30:44.564Z,105.43
2023-01-26T00:33:10.988Z,109.20
2023-01-26T00:35:37.369Z,114.10
2023-01-26T00:38:04.645Z,120.20
2023-01-26T00:40:31.144Z,112.43
2023-01-26T00:42:59.137Z,110.75
2023-01-26T00:45:25.484Z,115.93
2023-01-26T00:47:51.825Z,114.03
2023-01-26T00:50:18.222Z,115.45
2023-01-26T00:52:44.708Z,119.10
2023-01-26T00:55:11.101Z,115.95
2023-01-26T00:57:37.519Z,116.28
2023-01-26T01:00:06.345Z,116.55
2023-01-26T01:02:32.700Z,114.05
2023-01-26T01:04:59.077Z,126.65
2023-01-26T01:07:25.459Z,113.88
2023-01-26T01:09:51.789Z,112.05
2023-01-26T01:12:18.147Z,110.80
2023-01-26T01:14:44.661Z,115.78
2023-01-26T01:17:11.015Z,113.40
2023-01-26T01:19:37.989Z,113.32
2023-01-26T01:22:04.339Z,111.85
2023-01-26T01:24:30.887Z,113.88
2023-01-26T01:26:57.226Z,109.18
2023-01-26T01:29:23.545Z,113.45
2023-01-26T01:31:49.980Z,114.55
2023-01-26T01:34:16.323Z,113.45
2023-01-26T01:36:42.680Z,117.85
2023-01-26T01:39:09.109Z,110.60
2023-01-26T01:41:35.512Z,110.82
2023-01-26T01:44:20.497Z,106.90
2023-01-26T01:47:18.199Z,105.13
2023-01-26T01:49:51.191Z,108.20
2023-01-26T01:52:29.777Z,102.78
2023-01-26T01:55:07.300Z,105.07
2023-01-26T01:57:51.548Z,106.07
2023-01-26T02:00:21.177Z,108.85
2023-01-26T02:03:11.647Z,105.45
2023-01-26T02:06:14.195Z,108.07
2023-01-26T02:08:45.129Z,106.88
2023-01-26T02:11:25.875Z,108.95
2023-01-26T02:13:52.647Z,103.82
2023-01-26T02:16:19.706Z,105.15
2023-01-26T02:18:46.801Z,118.22
2023-01-26T02:21:17.603Z,113.80
2023-01-26T02:24:01.458Z,116.03
2023-01-26T02:26:31.322Z,112.68
2023-01-26T02:28:58.890Z,116.15
2023-01-26T02:31:26.681Z,108.82
2023-01-26T02:33:53.115Z,111.78
2023-01-26T02:36:21.567Z,110.22
2023-01-26T02:38:55.664Z,110.07
2023-01-26T02:41:40.692Z,109.55
2023-01-26T02:44:09.951Z,107.53
2023-01-26T02:46:36.463Z,118.00
2023-01-26T02:49:21.350Z,115.13
2023-01-26T02:51:47.900Z,110.82
2023-01-26T02:54:34.181Z,108.82
2023-01-26T02:57:00.827Z,115.70
2023-01-26T02:59:27.523Z,111.20
2023-01-26T03:01:56.081Z,117.97
2023-01-26T03:04:22.458Z,112.88
2023-01-26T03:06:48.979Z,110.97
2023-01-26T03:09:15.305Z,103.35
2023-01-26T03:11:44.281Z,111.45
2023-01-26T03:14:15.234Z,109.18
2023-01-26T03:16:42.397Z,101.35
2023-01-26T03:19:30.052Z,97.35
2023-01-26T03:22:14.880Z,104.85
2023-01-26T03:24:59.575Z,103.97
2023-01-26T03:27:28.570Z,97.65
2023-01-26T03:29:57.233Z,101.72
2023-01-26T03:32:24.549Z,100.75
2023-01-26T03:34:51.136Z,101.88
2023-01-26T03:37:22.483Z,97.40
2023-01-26T03:40:09.400Z,94.47
2023-01-26T03:42:55.153Z,89.18
2023-01-26T03:45:41.112Z,91.97
2023-01-26T03:48:28.523Z,88.80
2023-01-26T03:51:13.255Z,93.80
2023-01-26T03:53:58.066Z,93.65
2023-01-26T03:56:24.836Z,84.43
2023-01-26T03:58:54.046Z,90.32
2023-01-26T04:01:28.751Z,92.70
2023-01-26T04:04:15.874Z,90.40
2023-01-26T04:07:02.691Z,88.88
2023-01-26T04:09:29.698Z,86.70
2023-01-26T04:11:56.498Z,91.32
2023-01-26T04:14:50.144Z,84.97
2023-01-26T04:17:37.210Z,89.22
2023-01-26T04:20:24.389Z,83.32
2023-01-26T04:22:50.817Z,84.15
2023-01-26T04:25:19.267Z,88.07
2023-01-26T04:27:46.093Z,84.38
2023-01-26T04:30:14.697Z,89.05
2023-01-26T04:32:41.581Z,85.10
2023-01-26T04:35:09.410Z,86.47
2023-01-26T04:37:36.157Z,81.47
2023-01-26T04:40:04.113Z,83.43
2023-01-26T04:42:30.510Z,89.65
2023-01-26T04:44:56.837Z,82.28
2023-01-26T04:47:23.217Z,89.05
2023-01-26T04:49:49.624Z,88.68
2023-01-26T04:52:16.122Z,81.57
2023-01-26T04:54:42.511Z,84.05
2023-01-26T04:57:09.871Z,76.53
2023-01-26T04:59:36.796Z,78.18
2023-01-26T05:02:03.143Z,77.22
2023-01-26T05:04:29.624Z,78.13
2023-01-26T05:06:56.016Z,77.63
2023-01-26T05:09:22.324Z,76.47
2023-01-26T05:11:48.704Z,75.00
2023-01-26T05:14:15.890Z,77.50
2023-01-26T05:16:42.300Z,77.60
2023-01-26T05:19:08.745Z,76.07
2023-01-26T05:21:35.064Z,70.22
2023-01-26T05:24:01.539Z,72.15
2023-01-26T05:26:28.038Z,72.38
2023-01-26T05:28:54.359Z,69.55
2023-01-26T05:31:20.823Z,75.95
2023-01-26T05:33:47.200Z,72.30
2023-01-26T05:36:13.561Z,68.25
2023-01-26T05:38:39.956Z,73.45
2023-01-26T05:41:07.435Z,73.13
2023-01-26T05:43:33.805Z,73.38
2023-01-26T05:46:00.186Z,69.88
2023-01-26T05:48:26.513Z,68.70
2023-01-26T05:50:55.865Z,68.35
2023-01-26T05:53:22.252Z,75.00
2023-01-26T05:55:48.717Z,73.40
2023-01-26T05:58:15.035Z,70.72
2023-01-26T06:00:41.555Z,76.80
2023-01-26T06:03:07.915Z,73.70
2023-01-26T06:05:34.262Z,76.63
2023-01-26T06:08:00.572Z,74.47
2023-01-26T06:10:27.131Z,69.95
2023-01-26T06:12:53.441Z,70.90
2023-01-26T06:15:19.807Z,74.70
2023-01-26T06:17:46.179Z,71.35
2023-01-26T06:20:18.710Z,67.82
2023-01-26T06:22:45.048Z,69.15
2023-01-26T06:25:11.405Z,66.65
2023-01-26T06:27:41.997Z,65.15
2023-01-26T06:30:09.891Z,69.45
2023-01-26T06:32:37.241Z,64.80
2023-01-26T06:35:08.388Z,64.65
2023-01-26T06:37:34.855Z,62.65
2023-01-26T06:40:02.176Z,63.72
2023-01-26T06:42:28.538Z,64.50
2023-01-26T06:44:55.129Z,61.28
2023-01-26T06:47:35.911Z,61.35
2023-01-26T06:50:02.394Z,58.40
2023-01-26T06:52:35.606Z,58.28
2023-01-26T06:55:03.832Z,66.28
2023-01-26T06:57:30.199Z,55.90
2023-01-26T06:59:57.494Z,56.13
2023-01-26T07:02:24.293Z,57.67
2023-01-26T07:04:51.112Z,59.58
2023-01-26T07:07:17.469Z,56.92
2023-01-26T07:09:44.423Z,54.78
2023-01-26T07:12:10.756Z,56.88
2023-01-26T07:14:37.149Z,53.70
2023-01-26T07:17:03.692Z,54.30
2023-01-26T07:19:31.386Z,52.92
2023-01-26T07:21:57.794Z,51.03
2023-01-26T07:24:25.538Z,47.50
2023-01-26T07:26:52.351Z,43.53
2023-01-26T07:29:19.319Z,43.78
2023-01-26T07:31:45.876Z,44.25
2023-01-26T07:34:18.218Z,49.70
2023-01-26T07:36:45.449Z,44.65
2023-01-26T07:39:12.063Z,48.88
2023-01-26T07:41:38.454Z,42.28
2023-01-26T07:44:08.854Z,41.97
2023-01-26T07:46:35.228Z,45.83
2023-01-26T07:49:01.620Z,42.88
2023-01-26T07:51:27.949Z,40.13
2023-01-26T07:53:54.386Z,38.22
2023-01-26T07:56:20.813Z,40.03
2023-01-26T07:58:54.441Z,37.47
2023-01-26T08:01:21.701Z,36.83
2023-01-26T08:03:51.127Z,37.67
2023-01-26T08:06:18.458Z,35.20
2023-01-26T08:08:50.857Z,34.70
2023-01-26T08:11:19.282Z,36.80
2023-01-26T08:13:45.621Z,35.60
2023-01-26T08:16:12.761Z,32.88
2023-01-26T08:18:44.207Z,31.13
2023-01-26T08:21:12.674Z,28.95
2023-01-26T08:23:39.084Z,28.20
2023-01-26T08:26:08.804Z,29.30
2023-01-26T08:28:36.691Z,26.58
2023-01-26T08:31:12.015Z,32.75
2023-01-26T08:33:40.103Z,26.90
2023-01-26T08:36:08.917Z,27.88
2023-01-26T08:38:35.321Z,25.67
2023-01-26T08:41:02.744Z,25.55
2023-01-26T08:43:29.640Z,24.13
2023-01-26T08:45:56.427Z,24.52
2023-01-26T08:48:22.842Z,23.92
2023-01-26T08:50:53.984Z,22.08
2023-01-26T08:53:20.289Z,22.85
2023-01-26T08:55:46.616Z,27.90
2023-01-26T08:58:12.950Z,23.33
2023-01-26T09:00:39.343Z,22.83
2023-01-26T09:03:06.362Z,22.85
2023-01-26T09:05:35.483Z,22.58
2023-01-26T09:08:02.744Z,22.40
2023-01-26T09:10:29.195Z,22.83
2023-01-26T09:12:57.988Z,22.55
2023-01-26T09:15:24.799Z,20.75
2023-01-26T09:17:51.906Z,21.67
2023-01-26T09:20:19.043Z,19.35
2023-01-26T09:22:46.075Z,17.52
2023-01-26T09:25:12.789Z,18.77
2023-01-26T09:27:39.865Z,18.17
2023-01-26T09:30:08.289Z,19.30
2023-01-26T09:32:34.648Z,19.02
2023-01-26T09:35:00.978Z,18.30
2023-01-26T09:37:27.311Z,18.20
2023-01-26T09:39:53.705Z,18.30
2023-01-26T09:42:35.273Z,21.05
2023-01-26T09:45:14.157Z,18.70
2023-01-26T09:48:09.473Z,16.67
2023-01-26T09:51:00.621Z,20.05
2023-01-26T09:53:34.955Z,15.68
2023-01-26T09:56:01.323Z,18.17
2023-01-26T09:58:40.291Z,19.20
2023-01-26T10:01:18.688Z,18.77
2023-01-26T10:03:53.742Z,21.00
2023-01-26T10:06:28.153Z,19.58
2023-01-26T10:09:01.286Z,20.55
2023-01-26T10:11:35.144Z,19.45
2023-01-26T10:14:15.968Z,18.55
2023-01-26T10:16:45.301Z,21.20
2023-01-26T10:19:33.654Z,20.40
2023-01-26T10:22:07.521Z,19.92
2023-01-26T10:24:34.827Z,19.90
2023-01-26T10:27:01.250Z,17.00
2023-01-26T10:29:27.647Z,19.55
2023-01-26T10:31:55.109Z,16.98
2023-01-26T10:34:27.093Z,15.43
2023-01-26T10:37:01.811Z,18.02
2023-01-26T10:39:28.149Z,13.60
2023-01-26T10:42:00.367Z,16.83
2023-01-26T10:44:34.464Z,14.73
2023-01-26T10:47:17.229Z,16.83
2023-01-26T10:49:44.085Z,14.60
2023-01-26T10:52:24.761Z,15.45
2023-01-26T10:55:11.939Z,15.18
2023-01-26T10:57:41.249Z,14.88
2023-01-26T11:00:24.399Z,13.82
2023-01-26T11:02:54.231Z,15.15
2023-01-26T11:05:25.325Z,16.38
2023-01-26T11:08:00.302Z,14.15
2023-01-26T11:10:36.136Z,17.88
2023-01-26T11:13:17.495Z,15.38
2023-01-26T11:16:24.903Z,13.30
2023-01-26T11:19:13.185Z,15.35
2023-01-26T11:21:50.993Z,18.48
2023-01-26T11:24:33.793Z,17.27
2023-01-26T11:27:25.988Z,15.27
2023-01-26T11:30:23.458Z,15.95
2023-01-26T11:33:08.044Z,13.23
2023-01-26T11:36:02.800Z,12.05
2023-01-26T11:38:35.243Z,12.25
2023-01-26T11:41:20.312Z,11.45
2023-01-26T11:44:03.084Z,13.00
2023-01-26T11:47:06.883Z,12.60
2023-01-26T11:49:56.442Z,12.45
2023-01-26T11:52:48.646Z,12.40
2023-01-26T11:55:42.816Z,13.48
2023-01-26T11:58:24.391Z,13.30
2023-01-26T12:00:54.953Z,17.02
2023-01-26T12:03:46.201Z,13.82
2023-01-26T12:06:19.914Z,11.95
2023-01-26T12:09:04.632Z,11.75
2023-01-26T12:11:35.480Z,11.00
2023-01-26T12:14:15.959Z,12.57
2023-01-26T12:17:33.256Z,12.80
2023-01-26T12:20:38.396Z,11.30
2023-01-26T12:23:08.819Z,11.18
2023-01-26T12:25:38.085Z,11.07
2023-01-26T12:28:19.753Z,10.70
2023-01-26T12:31:18.299Z,12.07
2023-01-26T12:33:46.186Z,9.93
2023-01-26T12:36:21.472Z,11.35
2023-01-26T12:38:59.140Z,12.85
2023-01-26T12:41:38.224Z,10.77
2023-01-26T12:44:26.423Z,14.60
2023-01-26T12:47:08.010Z,12.68
2023-01-26T12:49:53.798Z,14.68
2023-01-26T12:52:32.755Z,11.80
2023-01-26T12:55:15.560Z,13.40
2023-01-26T12:57:48.471Z,14.43
2023-01-26T13:00:19.957Z,12.18
2023-01-26T13:02:51.245Z,15.60
2023-01-26T13:05:33.590Z,16.13
2023-01-26T13:08:31.105Z,15.70
2023-01-26T13:11:01.760Z,15.18
2023-01-26T13:13:37.981Z,15.65
2023-01-26T13:16:16.674Z,17.40
2023-01-26T13:18:53.433Z,18.27
2023-01-26T13:21:38.001Z,16.90
2023-01-26T13:24:24.349Z,23.00
2023-01-26T13:26:53.600Z,24.13
2023-01-26T13:29:27.207Z,20.42
2023-01-26T13:31:58.151Z,23.30
2023-01-26T13:34:29.466Z,28.83
2023-01-26T13:37:04.318Z,22.42
2023-01-26T13:39:41.268Z,22.83
2023-01-26T13:42:41.451Z,48.20
2023-01-26T13:45:16.822Z,31.65
2023-01-26T13:47:49.040Z,26.15
2023-01-26T13:50:30.502Z,24.27
2023-01-26T13:52:57.096Z,24.20
2023-01-26T13:55:26.793Z,26.00
2023-01-26T13:58:13.343Z,27.30
2023-01-26T14:00:39.870Z,40.03
2023-01-26T14:03:18.542Z,49.75
2023-01-26T14:05:52.692Z,30.38
2023-01-26T14:08:22.067Z,27.52
2023-01-26T14:10:48.892Z,29.42
2023-01-26T14:13:29.023Z,28.15
2023-01-26T14:15:59.625Z,30.95
2023-01-26T14:18:26.577Z,28.92
2023-01-26T14:20:59.430Z,31.98
2023-01-26T14:23:33.169Z,29.67
2023-01-26T14:26:13.600Z,26.27
2023-01-26T14:28:42.847Z,30.10
2023-01-26T14:31:20.266Z,35.17
2023-01-26T14:33:48.584Z,33.25
2023-01-26T14:36:19.729Z,33.22
2023-01-26T14:38:48.992Z,27.95
2023-01-26T14:41:31.699Z,27.38
2023-01-26T14:44:05.014Z,30.05
2023-01-26T14:46:50.084Z,32.05
2023-01-26T14:49:27.200Z,34.63
2023-01-26T14:51:58.447Z,34.28
2023-01-26T14:54:33.146Z,30.08
2023-01-26T14:57:00.835Z,29.60
2023-01-26T14:59:39.801Z,35.05
2023-01-26T15:02:20.520Z,32.38
2023-01-26T15:05:12.553Z,29.25
2023-01-26T15:07:45.379Z,34.55
2023-01-26T15:10:30.675Z,35.95
2023-01-26T15:13:08.117Z,28.40
2023-01-26T15:15:40.935Z,34.95
2023-01-26T15:18:13.313Z,34.50
2023-01-26T15:20:49.117Z,31.17
2023-01-26T15:25:47.779Z,34.15
2023-01-26T15:28:19.913Z,34.55
2023-01-26T15:30:49.490Z,34.33
2023-01-26T15:34:03.938Z,37.88
2023-01-26T15:36:50.513Z,37.10
2023-01-26T15:39:19.107Z,33.90
2023-01-26T15:42:06.955Z,33.95
2023-01-26T15:44:33.351Z,41.58
2023-01-26T15:46:59.672Z,35.38
2023-01-26T15:49:26.055Z,37.85
2023-01-26T15:51:54.090Z,46.33
2023-01-26T15:54:20.739Z,40.70
2023-01-26T15:56:47.071Z,42.58
2023-01-26T15:59:13.420Z,39.33
2023-01-26T16:01:39.886Z,39.67
2023-01-26T16:04:06.271Z,39.60
2023-01-26T16:06:33.578Z,43.58
2023-01-26T16:08:59.964Z,40.28
2023-01-26T16:11:31.359Z,41.08
2023-01-26T16:14:03.669Z,32.70
2023-01-26T16:16:31.962Z,34.53
2023-01-26T16:18:58.434Z,38.70
2023-01-26T16:21:29.522Z,39.28
2023-01-26T16:23:56.070Z,46.47
2023-01-26T16:26:22.608Z,37.03
2023-01-26T16:28:48.962Z,44.15
2023-01-26T16:31:24.547Z,42.30
2023-01-26T16:33:51.453Z,45.55
2023-01-26T16:36:19.394Z,44.28
2023-01-26T16:38:46.664Z,45.40
2023-01-26T16:41:14.528Z,48.70
2023-01-26T16:43:42.628Z,45.03
2023-01-26T16:46:09.521Z,45.70
2023-01-26T16:48:36.648Z,42.60
2023-01-26T16:51:14.456Z,41.38
2023-01-26T16:53:40.802Z,44.95
2023-01-26T16:56:10.953Z,39.30
2023-01-26T16:58:37.542Z,45.83
2023-01-26T17:01:04.195Z,46.25
2023-01-26T17:03:30.599Z,41.38
2023-01-26T17:05:57.165Z,44.88
2023-01-26T17:08:23.542Z,42.83
2023-01-26T17:11:01.692Z,39.55
2023-01-26T17:13:29.175Z,37.65
2023-01-26T17:15:56.554Z,40.70
2023-01-26T17:18:22.905Z,44.30
2023-01-26T17:20:49.331Z,44.83
2023-01-26T17:23:15.668Z,45.05
2023-01-26T17:25:42.072Z,53.05
2023-01-26T17:28:08.499Z,51.80
2023-01-26T17:30:34.965Z,42.17
2023-01-26T17:33:01.894Z,35.85
2023-01-26T17:35:28.247Z,42.38
2023-01-26T17:37:54.575Z,46.75
2023-01-26T17:40:20.911Z,51.50
2023-01-26T17:42:47.305Z,40.28
2023-01-26T17:45:13.878Z,40.00
2023-01-26T17:47:40.397Z,39.17
2023-01-26T17:50:07.576Z,44.35
2023-01-26T17:52:36.301Z,59.85
2023-01-26T17:55:05.919Z,60.13
2023-01-26T17:57:32.566Z,54.75
2023-01-26T17:59:58.948Z,38.00
2023-01-26T18:02:25.446Z,31.77
2023-01-26T18:04:51.863Z,30.80
2023-01-26T18:07:18.268Z,33.28
2023-01-26T18:09:44.666Z,39.85
2023-01-26T18:12:11.178Z,35.55
2023-01-26T18:14:37.512Z,37.42
2023-01-26T18:17:03.855Z,30.50
2023-01-26T18:19:33.807Z,35.72
2023-01-26T18:22:00.237Z,33.78
2023-01-26T18:24:30.444Z,27.98
2023-01-26T18:26:56.956Z,23.13
2023-01-26T18:29:26.440Z,20.58
2023-01-26T18:31:53.312Z,10.85
2023-01-26T18:34:19.987Z,14.68
2023-01-26T18:36:46.360Z,18.40
2023-01-26T18:39:16.847Z,14.38
2023-01-26T18:41:44.062Z,11.05
2023-01-26T18:44:10.687Z,11.27
2023-01-26T18:46:37.527Z,14.25
2023-01-26T18:49:06.802Z,12.98
2023-01-26T18:51:35.610Z,11.10
2023-01-26T18:54:04.008Z,15.38
2023-01-26T18:56:31.266Z,11.32
2023-01-26T18:58:57.965Z,11.13
2023-01-26T19:01:24.452Z,9.63
2023-01-26T19:03:55.344Z,6.25
2023-01-26T19:06:23.952Z,11.25
2023-01-26T19:08:58.309Z,8.25
2023-01-26T19:11:30.851Z,12.70
2023-01-26T19:13:58.366Z,7.97
2023-01-26T19:16:24.844Z,10.18
2023-01-26T19:18:51.979Z,10.98
2023-01-26T19:21:21.672Z,9.80
2023-01-26T19:23:48.921Z,13.32
2023-01-26T19:26:18.182Z,14.75
2023-01-26T19:28:45.501Z,9.32
2023-01-26T19:31:12.468Z,7.43
2023-01-26T19:33:39.199Z,9.40
2023-01-26T19:36:07.346Z,11.38
2023-01-26T19:38:36.824Z,8.80
2023-01-26T19:41:03.365Z,9.25
2023-01-26T19:43:29.699Z,7.18
2023-01-26T19:45:57.009Z,7.35
2023-01-26T19:48:26.654Z,7.97
2023-01-26T19:51:08.154Z,7.32
2023-01-26T19:53:37.235Z,8.05
2023-01-26T19:56:17.201Z,8.30
2023-01-26T19:58:49.015Z,11.13
2023-01-26T20:01:15.413Z,9.13
2023-01-26T20:03:41.863Z,15.55
2023-01-26T20:06:15.809Z,11.43
2023-01-26T20:08:43.138Z,9.45
2023-01-26T20:11:10.409Z,8.10
2023-01-26T20:13:37.318Z,10.23
2023-01-26T20:16:06.618Z,8.30
2023-01-26T20:18:33.327Z,13.95
2023-01-26T20:21:01.058Z,8.27
2023-01-26T20:23:27.882Z,8.43
2023-01-26T20:26:04.488Z,8.77
2023-01-26T20:28:31.291Z,19.25
2023-01-26T20:31:15.617Z,10.45
2023-01-26T20:33:43.763Z,11.45
2023-01-26T20:36:13.493Z,11.15
2023-01-26T20:38:40.165Z,16.05
2023-01-26T20:41:12.034Z,11.23
2023-01-26T20:43:41.457Z,14.15
2023-01-26T20:46:10.251Z,14.75
2023-01-26T20:48:36.649Z,12.82
2023-01-26T20:51:10.735Z,17.45
2023-01-26T20:53:37.167Z,11.48
2023-01-26T20:56:03.551Z,14.25
2023-01-26T20:58:30.465Z,14.70
2023-01-26T21:01:04.334Z,14.82
2023-01-26T21:03:30.705Z,14.77
2023-01-26T21:05:57.031Z,13.52
2023-01-26T21:08:23.547Z,12.05
2023-01-26T21:10:49.889Z,16.02
2023-01-26T21:13:16.229Z,11.73
2023-01-26T21:15:42.641Z,13.18
2023-01-26T21:18:09.119Z,17.08
2023-01-26T21:20:35.540Z,11.88
2023-01-26T21:23:01.868Z,10.15
2023-01-26T21:25:28.269Z,12.35
2023-01-26T21:27:54.709Z,10.32
2023-01-26T21:30:21.677Z,17.27
2023-01-26T21:32:48.307Z,8.25
2023-01-26T21:35:15.992Z,14.30
2023-01-26T21:37:42.419Z,14.15
2023-01-26T21:40:10.540Z,11.73
2023-01-26T21:42:37.108Z,14.43
2023-01-26T21:45:22.393Z,14.10
2023-01-26T21:48:11.460Z,13.03
2023-01-26T21:50:56.228Z,11.30
2023-01-26T21:53:22.752Z,12.30
2023-01-26T21:55:49.196Z,14.82
2023-01-26T21:58:33.948Z,14.85
2023-01-26T22:01:09.817Z,14.25
2023-01-26T22:03:36.798Z,14.25
2023-01-26T22:06:04.225Z,16.13
2023-01-26T22:08:30.984Z,19.15
2023-01-26T22:10:57.413Z,18.73
2023-01-26T22:13:24.551Z,13.68
2023-01-26T22:15:51.191Z,14.93
2023-01-26T22:18:17.839Z,18.13
2023-01-26T22:20:44.653Z,15.70
2023-01-26T22:23:11.498Z,18.27
2023-01-26T22:25:39.529Z,14.40
2023-01-26T22:28:06.637Z,13.98
2023-01-26T22:30:33.932Z,17.17
2023-01-26T22:33:00.711Z,14.90
2023-01-26T22:35:31.776Z,13.13
2023-01-26T22:37:59.036Z,14.90
2023-01-26T22:40:25.859Z,15.68
2023-01-26T22:42:53.040Z,17.67
2023-01-26T22:45:19.971Z,13.13
2023-01-26T22:47:49.750Z,17.27
2023-01-26T22:50:16.735Z,14.23
2023-01-26T22:52:43.267Z,16.23
2023-01-26T22:55:10.105Z,17.42
2023-01-26T22:57:36.521Z,13.65
2023-01-26T23:00:04.496Z,18.77
2023-01-26T23:02:30.859Z,15.55
2023-01-26T23:04:57.307Z,14.10
2023-01-26T23:07:24.439Z,17.52
2023-01-26T23:09:50.850Z,16.38
2023-01-26T23:12:17.393Z,16.45
2023-01-26T23:14:43.817Z,21.48
2023-01-26T23:17:11.397Z,17.67
2023-01-26T23:19:37.916Z,15.93
2023-01-26T23:22:04.665Z,16.55
2023-01-26T23:24:31.076Z,17.50
2023-01-26T23:26:57.463Z,15.68
2023-01-26T23:29:23.987Z,20.38
2023-01-26T23:31:50.467Z,19.85
2023-01-26T23:34:16.899Z,16.23
2023-01-26T23:36:43.298Z,19.77
2023-01-26T23:39:09.714Z,19.70
2023-01-26T23:41:36.068Z,21.02
2023-01-26T23:44:02.381Z,23.33
2023-01-26T23:46:28.823Z,20.20
2023-01-26T23:48:55.227Z,18.52
2023-01-26T23:51:21.588Z,18.90
2023-01-26T23:53:47.992Z,22.45
2023-01-26T23:56:16.478Z,19.50
2023-01-26T23:58:43.030Z,16.42
